MOL Partner — 3EBZ5 — position and weather

sailwx.info

Track history (hours):
 
Tides and Currents Weather Stations Pressure Air Temp Water Temp Dewpoint Dewpoint Depression Visibility Wind Speed Wind Dir Waves Ship Positions

MOL Partner

Last reported at 2016-Sep-24 02:27 UTC. Time now 2016-Sep-26 13:59 UTC.
Position N 48°28' W 126°34'.

Length 293 m; draft 13.8 m.

Type: Ship (hazmat cat D). MMSI: 371303000.

Date/timePositionNaut miles runAvg speedWind from/ knotsBaromVisibWave heightAir tempDewpointWater temp
2016-Sep-24 02:27N 48°28' W 126°34'1213.4
2016-Sep-24 01:34N 48°28' W 126°16'1313.0
2016-Sep-24 00:34N 48°29' W 125°57'6212.4
2016-Sep-23 19:34N 48°25' W 124°23'2713.4
2016-Sep-23 17:34N 48°16' W 123°45'1212.4
2016-Sep-23 16:33N 48°14' W 123°27'9 8.9
2016-Sep-23 15:32N 48°10' W 123°14'2914.5
2016-Sep-23 13:34N 47°59' W 122°35'25 6.2
2016-Sep-23 09:31N 47°36' W 122°21'0 0.0
2016-Sep-23 06:31N 47°36' W 122°21'0 0.0
2016-Sep-23 04:32N 47°36' W 122°21'0 0.0
2016-Sep-23 03:32N 47°36' W 122°21'0 0.0
2016-Sep-23 02:31N 47°36' W 122°21'0 0.0
2016-Sep-23 01:32N 47°36' W 122°21'0 0.0
2016-Sep-23 00:31N 47°36' W 122°21'0 0.0
2016-Sep-22 23:29N 47°36' W 122°21'0 0.0
2016-Sep-22 20:31N 47°36' W 122°21'0 0.0
2016-Sep-22 12:32N 47°36' W 122°21'0 0.0
2016-Sep-22 04:31N 47°36' W 122°21'0 0.0
2016-Sep-22 03:31N 47°36' W 122°21'0 0.0
2016-Sep-22 00:32N 47°36' W 122°21'0 0.0
2016-Sep-21 23:31N 47°36' W 122°21'0 0.0
2016-Sep-21 22:31N 47°36' W 122°21'0 0.0
2016-Sep-21 19:31N 47°36' W 122°21'0 0.0
2016-Sep-21 16:29N 47°36' W 122°21'4 0.6
2016-Sep-21 09:33N 47°38' W 122°26'1414.0
2016-Sep-21 08:33N 47°52' W 122°29'4214.1
2016-Sep-21 05:34N 48°11' W 123°25'2210.8
2016-Sep-21 03:34N 48°31' W 123°13'1514.6
2016-Sep-21 02:33N 48°45' W 123°06'17 1.8
2016-Sep-20 17:32N 49°01' W 123°09'0 0.0
2016-Sep-20 14:32N 49°01' W 123°09'0 0.0
2016-Sep-20 13:32N 49°01' W 123°09'0 0.0
2016-Sep-20 10:32N 49°01' W 123°09'0 0.0
2016-Sep-20 08:32N 49°01' W 123°09'0 0.0
2016-Sep-20 07:32N 49°01' W 123°09'0 0.0
2016-Sep-20 06:32N 49°01' W 123°09'0 0.0
2016-Sep-20 02:32N 49°01' W 123°09'0 0.0
2016-Sep-19 23:32N 49°01' W 123°09'0 0.0
2016-Sep-19 19:32N 49°01' W 123°09'0 0.0
2016-Sep-19 18:32N 49°01' W 123°09'0 0.0
2016-Sep-19 16:29N 49°01' W 123°09'0 0.0
2016-Sep-19 14:32N 49°01' W 123°09'0 0.0
2016-Sep-19 13:32N 49°01' W 123°09'0 0.0
2016-Sep-19 12:32N 49°01' W 123°09'0 0.0
2016-Sep-19 11:32N 49°01' W 123°09'0 0.0
2016-Sep-19 09:32N 49°01' W 123°09'0 0.0
2016-Sep-19 07:32N 49°01' W 123°09'0 0.0
2016-Sep-19 06:32N 49°01' W 123°09'0 0.0
2016-Sep-19 03:32N 49°01' W 123°09'0 0.0
2016-Sep-19 02:33N 49°01' W 123°09'0 0.0
2016-Sep-19 00:32N 49°01' W 123°09'10 1.9
2016-Sep-18 19:33N 48°53' W 123°03'4812.0
2016-Sep-18 15:33N 48°13' W 123°44'1514.5
2016-Sep-18 14:33N 48°16' W 124°05'6015.0
2016-Sep-18 10:33N 48°28' W 125°34'1615.6
2016-Sep-18 09:33N 48°28' W 125°57'  
Track history (hours):
 
Tides and Currents Weather Stations Pressure Air Temp Water Temp Dewpoint Dewpoint Depression Visibility Wind Speed Wind Dir Waves Ship Positions

MOL Partner

Last reported at 2016-Sep-24 02:27 UTC. Time now 2016-Sep-26 13:59 UTC.
Position N 48°28' W 126°34'.

Length 293 m; draft 13.8 m.

Type: Ship (hazmat cat D). MMSI: 371303000.

Date/timePositionNaut miles runAvg speedWind from/ knotsBaromVisibWave heightAir tempDewpointWater temp
2016-Sep-24 02:27N 48°28' W 126°34'1213.4
2016-Sep-24 01:34N 48°28' W 126°16'1313.0
2016-Sep-24 00:34N 48°29' W 125°57'6212.4
2016-Sep-23 19:34N 48°25' W 124°23'2713.4
2016-Sep-23 17:34N 48°16' W 123°45'1212.4
2016-Sep-23 16:33N 48°14' W 123°27'9 8.9
2016-Sep-23 15:32N 48°10' W 123°14'2914.5
2016-Sep-23 13:34N 47°59' W 122°35'25 6.2
2016-Sep-23 09:31N 47°36' W 122°21'0 0.0
2016-Sep-23 06:31N 47°36' W 122°21'0 0.0
2016-Sep-23 04:32N 47°36' W 122°21'0 0.0
2016-Sep-23 03:32N 47°36' W 122°21'0 0.0
2016-Sep-23 02:31N 47°36' W 122°21'0 0.0
2016-Sep-23 01:32N 47°36' W 122°21'0 0.0
2016-Sep-23 00:31N 47°36' W 122°21'0 0.0
2016-Sep-22 23:29N 47°36' W 122°21'0 0.0
2016-Sep-22 20:31N 47°36' W 122°21'0 0.0
2016-Sep-22 12:32N 47°36' W 122°21'0 0.0
2016-Sep-22 04:31N 47°36' W 122°21'0 0.0
2016-Sep-22 03:31N 47°36' W 122°21'0 0.0
2016-Sep-22 00:32N 47°36' W 122°21'0 0.0
2016-Sep-21 23:31N 47°36' W 122°21'0 0.0
2016-Sep-21 22:31N 47°36' W 122°21'0 0.0
2016-Sep-21 19:31N 47°36' W 122°21'0 0.0
2016-Sep-21 16:29N 47°36' W 122°21'4 0.6
2016-Sep-21 09:33N 47°38' W 122°26'1414.0
2016-Sep-21 08:33N 47°52' W 122°29'4214.1
2016-Sep-21 05:34N 48°11' W 123°25'2210.8
2016-Sep-21 03:34N 48°31' W 123°13'1514.6
2016-Sep-21 02:33N 48°45' W 123°06'17 1.8
2016-Sep-20 17:32N 49°01' W 123°09'0 0.0
2016-Sep-20 14:32N 49°01' W 123°09'0 0.0
2016-Sep-20 13:32N 49°01' W 123°09'0 0.0
2016-Sep-20 10:32N 49°01' W 123°09'0 0.0
2016-Sep-20 08:32N 49°01' W 123°09'0 0.0
2016-Sep-20 07:32N 49°01' W 123°09'0 0.0
2016-Sep-20 06:32N 49°01' W 123°09'0 0.0
2016-Sep-20 02:32N 49°01' W 123°09'0 0.0
2016-Sep-19 23:32N 49°01' W 123°09'0 0.0
2016-Sep-19 19:32N 49°01' W 123°09'0 0.0
2016-Sep-19 18:32N 49°01' W 123°09'0 0.0
2016-Sep-19 16:29N 49°01' W 123°09'0 0.0
2016-Sep-19 14:32N 49°01' W 123°09'0 0.0
2016-Sep-19 13:32N 49°01' W 123°09'0 0.0
2016-Sep-19 12:32N 49°01' W 123°09'0 0.0
2016-Sep-19 11:32N 49°01' W 123°09'0 0.0
2016-Sep-19 09:32N 49°01' W 123°09'0 0.0
2016-Sep-19 07:32N 49°01' W 123°09'0 0.0
2016-Sep-19 06:32N 49°01' W 123°09'0 0.0
2016-Sep-19 03:32N 49°01' W 123°09'0 0.0
2016-Sep-19 02:33N 49°01' W 123°09'0 0.0
2016-Sep-19 00:32N 49°01' W 123°09'10 1.9
2016-Sep-18 19:33N 48°53' W 123°03'4812.0
2016-Sep-18 15:33N 48°13' W 123°44'1514.5
2016-Sep-18 14:33N 48°16' W 124°05'6015.0
2016-Sep-18 10:33N 48°28' W 125°34'1615.6
2016-Sep-18 09:33N 48°28' W 125°57'  

Dump ship's entire track history